Latex, Texas
Current Conditions -  °F | °C
As of 12:15 PM on Wednesday 28 Jan 2015 (Local Time) from KASL Reporting Station
Clear Clear  
Wind Chill: 76°   Ceiling: Unl
Heat Index: 78°   Visibility: NA
Dew Point: 46°   Wind: 14mph
Humidity: 34%   Direction: 200°SSW
Pressure: 30.17"   Gusts: 17mph
Location:  32.3555°N, 94.0955°W
Report Text: KASL 281815Z AUTO 20012G15KT CLR 25/08 A3017 RMK AO1 T02450077
Loading
Personal Weather Stations






























Interactive Weather Map New forecast layout! Learn more

10-Day Weather Forecast

Advertisements
Track Severe Weather on mobile